Brangus — WDB4516 — position and weather

sailwx.info

Track history (hours):
 
Tides and Currents Weather Stations Pressure Air Temp Water Temp Dewpoint Dewpoint Depression Visibility Wind Speed Wind Dir Waves Ship Positions

Brangus

Owner: Great Lakes Dredge & Dock Company, Oak Brook, IL. More information available from US FCC via Universal Licensing System and Coast Guard Vessel Documentation Center.

Last reported at 2017-Aug-16 21:30 UTC. Time now 2017-Aug-16 21:50 UTC.
Position N 39°39' W 075°32'.

; draft 3 m.

MMSI: 366899270.

Date/timePositionNaut miles runAvg speedWind from/ knotsBaromVisibWave heightAir tempDewpointWater temp
2017-Aug-16 21:30N 39°39' W 075°32'0 0.0
2017-Aug-16 21:01N 39°39' W 075°32'0 0.0
2017-Aug-16 20:30N 39°39' W 075°32'0 0.0
2017-Aug-16 20:01N 39°39' W 075°32'0 0.0
2017-Aug-16 19:31N 39°39' W 075°32'0 0.0
2017-Aug-16 19:00N 39°39' W 075°32'0 0.0
2017-Aug-16 18:31N 39°39' W 075°32'0 0.0
2017-Aug-16 18:01N 39°39' W 075°32'0 0.0
2017-Aug-16 17:31N 39°39' W 075°32'0 0.3
2017-Aug-16 17:01N 39°39' W 075°32'0 0.3
2017-Aug-16 16:30N 39°39' W 075°32'0 0.0
2017-Aug-16 16:01N 39°39' W 075°32'0 0.0
2017-Aug-16 15:30N 39°39' W 075°32'0 0.0
2017-Aug-16 15:00N 39°39' W 075°32'0 0.0
2017-Aug-16 14:30N 39°39' W 075°32'0 0.0
2017-Aug-16 14:00N 39°39' W 075°32'0 0.0
2017-Aug-16 13:30N 39°39' W 075°32'0 1.0
2017-Aug-16 13:00N 39°40' W 075°32'0 0.0
2017-Aug-16 12:30N 39°40' W 075°32'0 0.0
2017-Aug-16 12:00N 39°40' W 075°32'0 0.9
2017-Aug-16 11:30N 39°39' W 075°32'0 0.9
2017-Aug-16 11:00N 39°40' W 075°32'0 0.1
2017-Aug-16 10:30N 39°40' W 075°32'0 0.0
2017-Aug-16 10:00N 39°40' W 075°32'0 0.0
2017-Aug-16 09:30N 39°40' W 075°32'0 0.0
2017-Aug-16 09:00N 39°40' W 075°32'0 0.1
2017-Aug-16 08:30N 39°40' W 075°32'0 0.1
2017-Aug-16 08:00N 39°40' W 075°32'1 1.0
2017-Aug-16 07:30N 39°39' W 075°32'0 0.0
2017-Aug-16 07:00N 39°39' W 075°32'0 0.0
2017-Aug-16 06:30N 39°39' W 075°32'0 0.0
2017-Aug-16 06:00N 39°39' W 075°32'0 0.0
2017-Aug-16 05:30N 39°39' W 075°32'0 0.0
2017-Aug-16 05:00N 39°39' W 075°32'0 0.0
2017-Aug-16 04:30N 39°39' W 075°32'0 0.0
2017-Aug-16 04:00N 39°39' W 075°32'0 0.0
2017-Aug-16 03:30N 39°39' W 075°32'0 0.0
2017-Aug-16 03:00N 39°39' W 075°32'0 0.0
2017-Aug-16 02:30N 39°39' W 075°32'0 0.0
2017-Aug-16 02:01N 39°39' W 075°32'0 0.0
2017-Aug-16 01:30N 39°39' W 075°32'0 0.0
2017-Aug-16 01:01N 39°39' W 075°32'0 0.0
2017-Aug-16 00:30N 39°39' W 075°32'0 0.0
2017-Aug-16 00:00N 39°39' W 075°32'0 0.0
2017-Aug-15 23:30N 39°39' W 075°32'0 0.0
2017-Aug-15 23:00N 39°39' W 075°32'0 0.0
2017-Aug-15 22:30N 39°39' W 075°32'0 0.0
2017-Aug-15 22:00N 39°39' W 075°32'0 0.0
2017-Aug-15 21:30N 39°39' W 075°32'0 0.0
2017-Aug-15 21:00N 39°39' W 075°32'0 0.0
2017-Aug-15 20:30N 39°39' W 075°32'0 0.0
2017-Aug-15 20:00N 39°39' W 075°32'0 0.0
2017-Aug-15 19:30N 39°39' W 075°32'0 0.0
2017-Aug-15 19:00N 39°39' W 075°32'2 4.7
2017-Aug-15 18:30N 39°38' W 075°34'3 6.5
2017-Aug-15 18:00N 39°35' W 075°33'2 3.5
2017-Aug-15 17:30N 39°33' W 075°32'2 3.9
2017-Aug-15 17:01N 39°34' W 075°30'0 0.9
2017-Aug-15 16:30N 39°34' W 075°29'0 0.0
2017-Aug-15 16:00N 39°34' W 075°29'0 0.0
2017-Aug-15 15:30N 39°34' W 075°29'0 0.1
2017-Aug-15 15:00N 39°34' W 075°29'1 2.0
2017-Aug-15 14:30N 39°34' W 075°30'2 3.6
2017-Aug-15 14:01N 39°33' W 075°32'3 6.1
2017-Aug-15 13:30N 39°36' W 075°34'3 6.4
2017-Aug-15 13:01N 39°39' W 075°33'1 1.9
2017-Aug-15 12:30N 39°39' W 075°32'0 0.0
2017-Aug-15 12:00N 39°39' W 075°32'0 0.0
2017-Aug-15 11:30N 39°39' W 075°32'0 0.0
2017-Aug-15 11:00N 39°39' W 075°32'1 1.2
2017-Aug-15 10:30N 39°40' W 075°32'0 0.1
2017-Aug-15 10:00N 39°40' W 075°32'0 0.1
2017-Aug-15 09:30N 39°40' W 075°32'1 1.2
2017-Aug-15 09:01N 39°39' W 075°32'0 0.0
2017-Aug-15 08:31N 39°39' W 075°32'0 0.0
2017-Aug-15 08:01N 39°39' W 075°32'0 0.0
2017-Aug-15 07:30N 39°39' W 075°32'0 0.0
2017-Aug-15 07:01N 39°39' W 075°32'0 0.0
2017-Aug-15 06:30N 39°39' W 075°32'0 0.0
2017-Aug-15 06:00N 39°39' W 075°32'0 0.0
2017-Aug-15 05:30N 39°39' W 075°32'0 0.0
2017-Aug-15 05:00N 39°39' W 075°32'0 0.0
2017-Aug-15 04:30N 39°39' W 075°32'0 0.0
2017-Aug-15 04:00N 39°39' W 075°32'0 0.0
2017-Aug-15 03:30N 39°39' W 075°32'0 0.0
2017-Aug-15 03:00N 39°39' W 075°32'0 0.0
2017-Aug-15 02:30N 39°39' W 075°32'0 0.0
2017-Aug-15 02:00N 39°39' W 075°32'0 0.0
2017-Aug-15 01:30N 39°39' W 075°32'0 0.0
2017-Aug-15 01:00N 39°39' W 075°32'0 0.0
2017-Aug-15 00:30N 39°39' W 075°32'0 0.0
2017-Aug-15 00:00N 39°39' W 075°32'0 0.0
2017-Aug-14 23:30N 39°39' W 075°32'0 0.0
2017-Aug-14 23:00N 39°39' W 075°32'0 0.0
2017-Aug-14 22:30N 39°39' W 075°32'0 0.0
2017-Aug-14 22:00N 39°39' W 075°32'0 0.0
2017-Aug-14 21:30N 39°39' W 075°32'0 0.0
2017-Aug-14 21:00N 39°39' W 075°32'0 0.0
2017-Aug-14 20:30N 39°39' W 075°32'0 0.0
2017-Aug-14 20:01N 39°39' W 075°32'0 0.0
2017-Aug-14 19:30N 39°39' W 075°32'0 0.0
2017-Aug-14 19:01N 39°39' W 075°32'0 0.0
2017-Aug-14 18:31N 39°39' W 075°32'1 1.4
2017-Aug-14 18:00N 39°40' W 075°32'0 0.1
2017-Aug-14 17:30N 39°40' W 075°32'1 1.3
2017-Aug-14 17:00N 39°39' W 075°32'0 0.3
2017-Aug-14 16:31N 39°39' W 075°32'0 0.2
2017-Aug-14 16:01N 39°39' W 075°32'0 0.0
2017-Aug-14 15:31N 39°39' W 075°32'0 0.0
2017-Aug-14 15:01N 39°39' W 075°32'0 0.0
2017-Aug-14 14:31N 39°39' W 075°32'0 0.0
2017-Aug-14 14:00N 39°39' W 075°32'0 0.0
2017-Aug-14 13:30N 39°39' W 075°32'0 0.3
2017-Aug-14 13:00N 39°39' W 075°32'0 0.0
2017-Aug-14 12:30N 39°39' W 075°32'0 0.0
2017-Aug-14 12:00N 39°39' W 075°32'0 0.0
2017-Aug-14 11:30N 39°39' W 075°32'1 1.7
2017-Aug-14 11:00N 39°40' W 075°32'0 0.0
2017-Aug-14 10:30N 39°40' W 075°32'0 0.0
2017-Aug-14 10:00N 39°40' W 075°32'0 0.0
2017-Aug-14 09:30N 39°40' W 075°32'1 1.5
2017-Aug-14 09:00N 39°39' W 075°32'0 0.0
2017-Aug-14 08:30N 39°39' W 075°32'0 0.0
2017-Aug-14 08:00N 39°39' W 075°32'0 0.0
2017-Aug-14 07:30N 39°39' W 075°32'0 0.0
2017-Aug-14 07:00N 39°39' W 075°32'0 0.0
2017-Aug-14 06:30N 39°39' W 075°32'0 0.0
2017-Aug-14 06:01N 39°39' W 075°32'0 0.0
2017-Aug-14 05:30N 39°39' W 075°32'0 0.0
2017-Aug-14 05:00N 39°39' W 075°32'0 0.0
2017-Aug-14 04:30N 39°39' W 075°32'0 0.0
2017-Aug-14 04:00N 39°39' W 075°32'0 0.0
2017-Aug-14 03:30N 39°39' W 075°32'1 1.6
2017-Aug-14 03:00N 39°40' W 075°32'0 0.3
2017-Aug-14 02:30N 39°40' W 075°32'0 0.7
2017-Aug-14 02:00N 39°40' W 075°32'0 0.2
2017-Aug-14 01:30N 39°40' W 075°32'0 0.7
2017-Aug-14 01:00N 39°39' W 075°32'0 0.0
2017-Aug-14 00:30N 39°39' W 075°32'0 0.0
2017-Aug-14 00:00N 39°39' W 075°32'0 0.0
2017-Aug-13 23:30N 39°39' W 075°32'0 0.0
2017-Aug-13 23:00N 39°39' W 075°32'0 0.0
2017-Aug-13 22:30N 39°39' W 075°32'0 0.0
2017-Aug-13 22:00N 39°39' W 075°32'0 0.0
2017-Aug-13 21:30N 39°39' W 075°32'0 0.0
2017-Aug-13 21:00N 39°39' W 075°32'0 0.0
2017-Aug-13 20:30N 39°39' W 075°32'0 0.0
2017-Aug-13 20:00N 39°39' W 075°32'0 0.0
2017-Aug-13 19:30N 39°39' W 075°32'0 0.0
2017-Aug-13 19:01N 39°39' W 075°32'0 0.0
2017-Aug-13 18:30N 39°39' W 075°32'0 0.0
2017-Aug-13 18:01N 39°39' W 075°32'0 0.2
2017-Aug-13 17:30N 39°39' W 075°32'0 0.1
2017-Aug-13 17:00N 39°39' W 075°32'0 0.1
2017-Aug-13 16:30N 39°39' W 075°32'0 0.0
2017-Aug-13 16:00N 39°39' W 075°32'0 0.0
2017-Aug-13 15:30N 39°39' W 075°32'0 0.0
2017-Aug-13 15:00N 39°39' W 075°32'0 0.1
2017-Aug-13 14:30N 39°39' W 075°32'0 0.1
2017-Aug-13 14:00N 39°39' W 075°32'0 0.0
2017-Aug-13 13:30N 39°39' W 075°32'0 0.0
2017-Aug-13 13:00N 39°39' W 075°32'0 0.0
2017-Aug-13 12:30N 39°39' W 075°32'0 0.0
2017-Aug-13 12:00N 39°39' W 075°32'0 0.0
2017-Aug-13 11:31N 39°39' W 075°32'0 0.6
2017-Aug-13 11:00N 39°40' W 075°33'0 0.0
2017-Aug-13 10:30N 39°40' W 075°33'0 0.0
2017-Aug-13 10:00N 39°40' W 075°33'0 0.0
2017-Aug-13 09:30N 39°40' W 075°33'0 0.0
2017-Aug-13 09:01N 39°40' W 075°33'0 0.3
2017-Aug-13 08:31N 39°40' W 075°32'0 0.8
2017-Aug-13 08:01N 39°39' W 075°32'0 0.0
2017-Aug-13 07:31N 39°39' W 075°32'0 0.0
2017-Aug-13 07:00N 39°39' W 075°32'0 0.0
2017-Aug-13 06:31N 39°39' W 075°32'0 0.0
2017-Aug-13 06:01N 39°39' W 075°32'0 0.0
2017-Aug-13 05:30N 39°39' W 075°32'0 0.0
2017-Aug-13 05:01N 39°39' W 075°32'0 0.0
2017-Aug-13 04:30N 39°39' W 075°32'0 0.0
2017-Aug-13 04:00N 39°39' W 075°32'0 0.0
2017-Aug-13 03:30N 39°39' W 075°32'0 0.0
2017-Aug-13 03:00N 39°39' W 075°32'0 0.0
2017-Aug-13 02:30N 39°39' W 075°32'0 0.0
2017-Aug-13 02:00N 39°39' W 075°32'0 0.0
2017-Aug-13 01:30N 39°39' W 075°32'0 0.0
2017-Aug-13 01:01N 39°39' W 075°32'0 0.0
2017-Aug-13 00:31N 39°39' W 075°32'0 0.0
2017-Aug-13 00:01N 39°39' W 075°32'0 0.0
2017-Aug-12 23:30N 39°39' W 075°32'0 0.0
2017-Aug-12 23:01N 39°39' W 075°32'0 0.0
2017-Aug-12 22:30N 39°39' W 075°32'0 0.0
2017-Aug-12 21:56N 39°39' W 075°32'0 0.0
2017-Aug-12 21:30N 39°39' W 075°32'0 0.0
2017-Aug-12 20:46N 39°39' W 075°32'0 0.0
2017-Aug-12 20:27N 39°39' W 075°32'0 0.0
2017-Aug-12 20:01N 39°39' W 075°32'0 0.0
2017-Aug-12 19:30N 39°39' W 075°32'0 0.0
2017-Aug-12 19:00N 39°39' W 075°32'0 0.0
2017-Aug-12 18:31N 39°39' W 075°32'0 0.0
2017-Aug-12 18:00N 39°39' W 075°32'0 0.1
2017-Aug-12 17:30N 39°39' W 075°32'0 0.1
2017-Aug-12 17:00N 39°39' W 075°32'0 0.2
2017-Aug-12 16:30N 39°39' W 075°32'0 0.2
2017-Aug-12 16:00N 39°39' W 075°32'0 0.0
2017-Aug-12 15:30N 39°39' W 075°32'0 0.0
2017-Aug-12 15:00N 39°39' W 075°32'0 0.8
2017-Aug-12 14:30N 39°40' W 075°32'0 0.9
2017-Aug-12 14:00N 39°39' W 075°32'0 0.1
2017-Aug-12 13:30N 39°39' W 075°32'0 0.1
2017-Aug-12 13:01N 39°39' W 075°32'0 0.0
2017-Aug-12 12:30N 39°39' W 075°32'0 0.0
2017-Aug-12 12:00N 39°39' W 075°32'0 0.0
2017-Aug-12 11:31N 39°39' W 075°32'0 0.7
2017-Aug-12 11:00N 39°40' W 075°33'0 0.2
2017-Aug-12 10:30N 39°40' W 075°32'0 0.0
2017-Aug-12 10:00N 39°40' W 075°32'0 0.0
2017-Aug-12 09:31N 39°40' W 075°32'0 0.0
2017-Aug-12 09:00N 39°40' W 075°32'0 0.1
2017-Aug-12 08:30N 39°40' W 075°32'0 0.2
2017-Aug-12 08:00N 39°40' W 075°32'0 0.1
2017-Aug-12 07:31N 39°40' W 075°32'1 1.3
2017-Aug-12 07:00N 39°39' W 075°33'0 0.1
2017-Aug-12 06:30N 39°39' W 075°33'0 0.8
2017-Aug-12 06:01N 39°39' W 075°32'0 0.0
2017-Aug-12 05:30N 39°39' W 075°32'0 0.0
2017-Aug-12 05:00N 39°39' W 075°32'0 0.0
2017-Aug-12 04:30N 39°39' W 075°32'0 0.0
2017-Aug-12 04:00N 39°39' W 075°32'0 0.0
2017-Aug-12 03:30N 39°39' W 075°32'0 0.0
2017-Aug-12 03:00N 39°39' W 075°32'0 0.0
2017-Aug-12 02:30N 39°39' W 075°32'0 0.0
2017-Aug-12 02:00N 39°39' W 075°32'0 0.0
2017-Aug-12 01:30N 39°39' W 075°32'0 0.0
2017-Aug-12 01:00N 39°39' W 075°32'0 0.6
2017-Aug-12 00:30N 39°39' W 075°33'0 0.4
2017-Aug-12 00:00N 39°39' W 075°32'0 0.4
2017-Aug-11 23:30N 39°39' W 075°33'0 0.6
2017-Aug-11 23:00N 39°39' W 075°32'0 0.0
2017-Aug-11 22:31N 39°39' W 075°32'0 0.7
2017-Aug-11 22:01N 39°39' W 075°33'0 0.1
2017-Aug-11 21:30N 39°39' W 075°33'0 0.0
2017-Aug-11 21:00N 39°39' W 075°33'0 0.1
2017-Aug-11 20:30N 39°39' W 075°33'0 0.0
2017-Aug-11 20:00N 39°39' W 075°33'0 0.0
2017-Aug-11 19:30N 39°39' W 075°33'0 0.0
2017-Aug-11 19:00N 39°39' W 075°33'0 0.0
2017-Aug-11 18:30N 39°39' W 075°33'0 0.0
2017-Aug-11 18:00N 39°39' W 075°33'0 0.0
2017-Aug-11 17:30N 39°39' W 075°33'0 0.3
2017-Aug-11 17:00N 39°39' W 075°33'1 1.7
2017-Aug-11 16:30N 39°39' W 075°33'1 2.6
2017-Aug-11 16:00N 39°40' W 075°32'1 1.3
2017-Aug-11 15:31N 39°39' W 075°33'0 0.1
2017-Aug-11 15:00N 39°39' W 075°33'0 0.2
2017-Aug-11 14:00N 39°39' W 075°33'1 1.0
2017-Aug-11 13:30N 39°39' W 075°34'0 0.4
2017-Aug-11 13:00N 39°39' W 075°33'0 0.3
2017-Aug-11 12:30N 39°39' W 075°33'1 1.3
2017-Aug-11 12:00N 39°39' W 075°33'0 0.2
2017-Aug-11 11:30N 39°39' W 075°33'0 0.3
2017-Aug-11 11:00N 39°39' W 075°33'0 0.1
2017-Aug-11 10:31N 39°39' W 075°33'0 0.0
2017-Aug-11 10:00N 39°39' W 075°33'0 0.0
2017-Aug-11 09:30N 39°39' W 075°33'0 0.6
2017-Aug-11 09:00N 39°39' W 075°32'0 0.0
2017-Aug-11 08:30N 39°39' W 075°32'0 0.0
2017-Aug-11 08:00N 39°39' W 075°32'0 0.0
2017-Aug-11 07:30N 39°39' W 075°32'0 0.0
2017-Aug-11 07:00N 39°39' W 075°32'0 0.0
2017-Aug-11 06:30N 39°39' W 075°32'0 0.0
2017-Aug-11 06:00N 39°39' W 075°32'0 0.0
2017-Aug-11 05:30N 39°39' W 075°32'0 0.0
2017-Aug-11 05:00N 39°39' W 075°32'0 0.0
2017-Aug-11 04:30N 39°39' W 075°32'0 0.0
2017-Aug-11 04:00N 39°39' W 075°32'0 0.0
2017-Aug-11 03:30N 39°39' W 075°32'0 0.0
2017-Aug-11 03:00N 39°39' W 075°32'0 0.0
2017-Aug-11 02:30N 39°39' W 075°32'0 0.0
2017-Aug-11 02:00N 39°39' W 075°32'0 0.0
2017-Aug-11 01:30N 39°39' W 075°32'0 0.0
2017-Aug-11 01:00N 39°39' W 075°32'0 0.7
2017-Aug-11 00:30N 39°40' W 075°33'0 0.3
2017-Aug-11 00:01N 39°39' W 075°33'0 0.1
2017-Aug-10 23:30N 39°39' W 075°33'0 0.5
2017-Aug-10 23:01N 39°39' W 075°33'0 0.5
2017-Aug-10 22:30N 39°39' W 075°33'1 1.1
2017-Aug-10 22:00N 39°39' W 075°32'0 0.2
2017-Aug-10 21:31N 39°39' W 075°32'0 0.0
2017-Aug-10 21:01N 39°39' W 075°32'0 0.0
2017-Aug-10 20:31N 39°39' W 075°32'0 0.0
2017-Aug-10 20:00N 39°39' W 075°32'0 0.0
2017-Aug-10 19:31N 39°39' W 075°32'0 0.0
2017-Aug-10 19:00N 39°39' W 075°32'0 0.0
2017-Aug-10 18:27N 39°39' W 075°32'0 0.0
2017-Aug-10 17:59N 39°39' W 075°32'0 0.0
2017-Aug-10 17:30N 39°39' W 075°32'0 0.0
2017-Aug-10 17:00N 39°39' W 075°32'0 0.0
2017-Aug-10 16:30N 39°39' W 075°32'0 0.0
2017-Aug-10 16:01N 39°39' W 075°32'0 0.0
2017-Aug-10 15:31N 39°39' W 075°32'0 0.0
2017-Aug-10 15:00N 39°39' W 075°32'0 0.0
2017-Aug-10 14:31N 39°39' W 075°32'0 0.0
2017-Aug-10 13:30N 39°39' W 075°32'0 0.0
2017-Aug-10 13:00N 39°39' W 075°32'0 0.0
2017-Aug-10 12:30N 39°39' W 075°32'0 0.0
2017-Aug-10 12:00N 39°39' W 075°32'0 0.0
2017-Aug-10 11:30N 39°39' W 075°32'0 0.6
2017-Aug-10 11:00N 39°39' W 075°33'0 0.5
2017-Aug-10 10:30N 39°39' W 075°33'0 0.1
2017-Aug-10 10:00N 39°39' W 075°33'0 0.0
2017-Aug-10 09:30N 39°39' W 075°33'1 1.0
2017-Aug-10 09:00N 39°39' W 075°32'0 0.0
2017-Aug-10 08:30N 39°39' W 075°32'0 0.0
2017-Aug-10 08:00N 39°39' W 075°32'0 0.0
2017-Aug-10 07:30N 39°39' W 075°32'0 0.0
2017-Aug-10 07:00N 39°39' W 075°32'0 0.0
2017-Aug-10 06:30N 39°39' W 075°32'0 0.0
2017-Aug-10 06:00N 39°39' W 075°32'0 0.0
2017-Aug-10 05:30N 39°39' W 075°32'0 0.0
2017-Aug-10 05:00N 39°39' W 075°32'0 0.0
2017-Aug-10 04:30N 39°39' W 075°32'0 0.0
2017-Aug-10 04:00N 39°39' W 075°32'0 0.0
2017-Aug-10 03:30N 39°39' W 075°32'0 0.0
2017-Aug-10 03:00N 39°39' W 075°32'0 0.0
2017-Aug-10 02:30N 39°39' W 075°32'0 0.0
2017-Aug-10 02:00N 39°39' W 075°32'0 0.0
2017-Aug-10 01:30N 39°39' W 075°32'0 0.0
2017-Aug-10 01:00N 39°39' W 075°32'0 0.0
2017-Aug-10 00:30N 39°39' W 075°32'0 0.0
2017-Aug-10 00:00N 39°39' W 075°32'0 0.0
2017-Aug-09 23:31N 39°39' W 075°32'0 0.0
2017-Aug-09 23:01N 39°39' W 075°32'0 0.0
2017-Aug-09 22:31N 39°39' W 075°32'0 0.9
2017-Aug-09 22:01N 39°39' W 075°33'0 0.0
2017-Aug-09 21:31N 39°39' W 075°33'0 0.9
2017-Aug-09 21:00N 39°39' W 075°32'0 0.0
2017-Aug-09 20:30N 39°39' W 075°32'0 0.0
2017-Aug-09 20:01N 39°39' W 075°32'0 0.0
2017-Aug-09 19:31N 39°39' W 075°32'0 0.0
2017-Aug-09 19:01N 39°39' W 075°32'0 0.0
2017-Aug-09 18:31N 39°39' W 075°32'0 0.0
2017-Aug-09 18:01N 39°39' W 075°32'0 0.0
2017-Aug-09 17:31N 39°39' W 075°32'0 0.0
2017-Aug-09 17:01N 39°39' W 075°32'0 0.0
2017-Aug-09 16:30N 39°39' W 075°32'0 0.0
2017-Aug-09 16:00N 39°39' W 075°32'0 0.0
2017-Aug-09 15:31N 39°39' W 075°32'0 0.0
2017-Aug-09 15:01N 39°39' W 075°32'0 0.8
2017-Aug-09 14:31N 39°39' W 075°33'0 0.6
2017-Aug-09 14:00N 39°39' W 075°33'1 1.1
2017-Aug-09 13:30N 39°39' W 075°32'0 0.1
2017-Aug-09 13:00N 39°39' W 075°32'0 0.5
2017-Aug-09 12:30N 39°39' W 075°33'0 0.0
2017-Aug-09 12:00N 39°39' W 075°33'0 0.1
2017-Aug-09 11:30N 39°39' W 075°33'0 0.6
2017-Aug-09 11:01N 39°39' W 075°32'0 0.6
2017-Aug-09 10:31N 39°39' W 075°33'0 0.0
2017-Aug-09 10:00N 39°39' W 075°33'0 0.0
2017-Aug-09 09:31N 39°39' W 075°33'0 0.6
2017-Aug-09 09:01N 39°39' W 075°32'0 0.0
2017-Aug-09 08:30N 39°39' W 075°32'0 0.0
2017-Aug-09 08:01N 39°39' W 075°32'0 0.0
2017-Aug-09 07:31N 39°39' W 075°32'0 0.0
2017-Aug-09 07:00N 39°39' W 075°32'0 0.0
2017-Aug-09 06:31N 39°39' W 075°32'0 0.0
2017-Aug-09 06:01N 39°39' W 075°32'0 0.0
2017-Aug-09 05:31N 39°39' W 075°32'0 0.0
2017-Aug-09 05:01N 39°39' W 075°32'0 0.0
2017-Aug-09 04:30N 39°39' W 075°32'0 0.0
2017-Aug-09 04:01N 39°39' W 075°32'0 0.0
2017-Aug-09 03:30N 39°39' W 075°32'0 0.0
2017-Aug-09 03:00N 39°39' W 075°32'0 0.0
2017-Aug-09 02:30N 39°39' W 075°32'0 0.0
2017-Aug-09 02:00N 39°39' W 075°32'0 0.0
2017-Aug-09 01:30N 39°39' W 075°32'0 0.0
2017-Aug-09 01:00N 39°39' W 075°32'0 0.0
2017-Aug-09 00:30N 39°39' W 075°32'0 0.0
2017-Aug-09 00:00N 39°39' W 075°32'0 0.0
2017-Aug-08 23:30N 39°39' W 075°32'0 0.0
2017-Aug-08 23:00N 39°39' W 075°32'0 0.0
2017-Aug-08 22:30N 39°39' W 075°32'0 0.0
2017-Aug-08 22:00N 39°39' W 075°32'0 0.0
2017-Aug-08 21:30N 39°39' W 075°32'0 0.0
2017-Aug-08 21:00N 39°39' W 075°32'0 0.0
2017-Aug-08 20:30N 39°39' W 075°32'0 0.0
2017-Aug-08 20:00N 39°39' W 075°32'0 0.0
2017-Aug-08 19:31N 39°39' W 075°32'0 0.0
2017-Aug-08 19:00N 39°39' W 075°32'0 0.6
2017-Aug-08 18:31N 39°39' W 075°33'2 3.5
2017-Aug-08 18:00N 39°38' W 075°34'3 5.2
2017-Aug-08 17:30N 39°35' W 075°34'3 5.5
2017-Aug-08 17:01N 39°33' W 075°32'2 4.1
2017-Aug-08 16:30N 39°34' W 075°30'1 1.8
2017-Aug-08 16:01N 39°34' W 075°29'0 0.0
2017-Aug-08 15:30N 39°34' W 075°29'2 3.8
2017-Aug-08 15:00N 39°34' W 075°31'1 1.8
2017-Aug-08 14:30N 39°34' W 075°33'2 4.2
2017-Aug-08 14:00N 39°35' W 075°34'2 4.5
2017-Aug-08 13:30N 39°37' W 075°35'3 5.2
2017-Aug-08 13:01N 39°39' W 075°33'0 0.1
2017-Aug-08 12:30N 39°39' W 075°33'0 0.1
2017-Aug-08 12:00N 39°39' W 075°33'0 0.5
2017-Aug-08 11:30N 39°39' W 075°32'0 0.0
2017-Aug-08 11:01N 39°39' W 075°32'0 0.6
2017-Aug-08 10:30N 39°39' W 075°33'0 0.0
2017-Aug-08 10:00N 39°39' W 075°33'0 0.0
2017-Aug-08 09:30N 39°39' W 075°33'0 0.6
2017-Aug-08 09:00N 39°39' W 075°32'0 0.0
2017-Aug-08 08:30N 39°39' W 075°32'0 0.0
2017-Aug-08 08:00N 39°39' W 075°32'0 0.0
2017-Aug-08 07:30N 39°39' W 075°32'0 0.0
2017-Aug-08 07:01N 39°39' W 075°32'0 0.7
2017-Aug-08 06:31N 39°40' W 075°32'0 0.7
2017-Aug-08 06:01N 39°39' W 075°32'0 0.0
2017-Aug-08 05:31N 39°39' W 075°32'0 0.0
2017-Aug-08 05:01N 39°39' W 075°32'0 0.0
2017-Aug-08 04:30N 39°39' W 075°32'0 0.0
2017-Aug-08 04:01N 39°39' W 075°32'0 0.0
2017-Aug-08 03:31N 39°39' W 075°32'0 0.0
2017-Aug-08 03:01N 39°39' W 075°32'0 0.0
2017-Aug-08 02:30N 39°39' W 075°32'0 0.0
2017-Aug-08 02:01N 39°39' W 075°32'0 0.0
2017-Aug-08 01:31N 39°39' W 075°32'0 0.6
2017-Aug-08 01:01N 39°40' W 075°33'0 0.0
2017-Aug-08 00:30N 39°39' W 075°33'0 0.5
2017-Aug-08 00:01N 39°39' W 075°32'0 0.1
2017-Aug-07 23:30N 39°39' W 075°32'0 0.0
2017-Aug-07 23:01N 39°39' W 075°32'0 0.0
2017-Aug-07 22:30N 39°39' W 075°32'0 0.0
2017-Aug-07 22:00N 39°39' W 075°32'0 0.0
2017-Aug-07 21:30N 39°39' W 075°32'0 0.0
2017-Aug-07 21:00N 39°39' W 075°32'0 0.0
2017-Aug-07 20:31N 39°39' W 075°32'0 0.0
2017-Aug-07 20:01N 39°39' W 075°32'0 0.0
2017-Aug-07 19:30N 39°39' W 075°32'0 0.0
2017-Aug-07 19:01N 39°39' W 075°32'0 0.0
2017-Aug-07 18:31N 39°39' W 075°32'0 0.0
2017-Aug-07 18:01N 39°39' W 075°32'0 0.0
2017-Aug-07 17:31N 39°39' W 075°32'0 0.0
2017-Aug-07 17:00N 39°39' W 075°32'0 0.0
2017-Aug-07 16:30N 39°39' W 075°32'0 0.0
2017-Aug-07 16:00N 39°39' W 075°32'0 0.0
2017-Aug-07 15:31N 39°39' W 075°32'0 0.0
2017-Aug-07 15:00N 39°39' W 075°32'0 0.0
2017-Aug-07 14:30N 39°39' W 075°32'0 0.0
2017-Aug-07 14:00N 39°39' W 075°32'0 0.0
2017-Aug-07 13:30N 39°39' W 075°32'0 0.0
2017-Aug-07 13:01N 39°39' W 075°32'0 0.0
2017-Aug-07 12:31N 39°39' W 075°32'0 0.0
2017-Aug-07 12:01N 39°39' W 075°32'0 0.0
2017-Aug-07 11:30N 39°39' W 075°32'0 0.7
2017-Aug-07 11:01N 39°40' W 075°32'0 0.0
2017-Aug-07 10:31N 39°40' W 075°32'0 0.0
2017-Aug-07 10:00N 39°40' W 075°32'0 0.0
2017-Aug-07 09:31N 39°40' W 075°32'0 0.0
2017-Aug-07 09:01N 39°40' W 075°32'0 0.0
2017-Aug-07 08:31N 39°40' W 075°32'0 0.1
2017-Aug-07 08:01N 39°40' W 075°32'0 0.4
2017-Aug-07 07:31N 39°40' W 075°33'0 0.3
2017-Aug-07 07:01N 39°39' W 075°33'0 0.1
2017-Aug-07 06:30N 39°39' W 075°33'0 0.9
2017-Aug-07 06:01N 39°40' W 075°32'1 1.7
2017-Aug-07 05:30N 39°39' W 075°33'0 0.8
2017-Aug-07 05:01N 39°39' W 075°33'0 0.8
2017-Aug-07 04:30N 39°39' W 075°33'0 0.1
2017-Aug-07 04:00N 39°39' W 075°33'1 1.3
2017-Aug-07 03:30N 39°39' W 075°32'0 0.0
2017-Aug-07 03:00N 39°39' W 075°32'0 0.0
2017-Aug-07 02:30N 39°39' W 075°32'0 0.0
2017-Aug-07 02:00N 39°39' W 075°32'0 0.0
2017-Aug-07 01:30N 39°39' W 075°32'0 0.0
2017-Aug-07 01:01N 39°39' W 075°32'0 0.0
2017-Aug-07 00:31N 39°39' W 075°32'0 0.0
2017-Aug-07 00:00N 39°39' W 075°32'0 0.0
2017-Aug-06 23:30N 39°39' W 075°32'0 0.0
2017-Aug-06 23:00N 39°39' W 075°32'0 0.0
2017-Aug-06 22:30N 39°39' W 075°32'0 0.0
2017-Aug-06 22:00N 39°39' W 075°32'  
Track history (hours):
 
Tides and Currents Weather Stations Pressure Air Temp Water Temp Dewpoint Dewpoint Depression Visibility Wind Speed Wind Dir Waves Ship Positions

Brangus

Owner: Great Lakes Dredge & Dock Company, Oak Brook, IL. More information available from US FCC via Universal Licensing System and Coast Guard Vessel Documentation Center.

Last reported at 2017-Aug-16 21:30 UTC. Time now 2017-Aug-16 21:50 UTC.
Position N 39°39' W 075°32'.

; draft 3 m.

MMSI: 366899270.

Date/timePositionNaut miles runAvg speedWind from/ knotsBaromVisibWave heightAir tempDewpointWater temp
2017-Aug-16 21:30N 39°39' W 075°32'0 0.0
2017-Aug-16 21:01N 39°39' W 075°32'0 0.0
2017-Aug-16 20:30N 39°39' W 075°32'0 0.0
2017-Aug-16 20:01N 39°39' W 075°32'0 0.0
2017-Aug-16 19:31N 39°39' W 075°32'0 0.0
2017-Aug-16 19:00N 39°39' W 075°32'0 0.0
2017-Aug-16 18:31N 39°39' W 075°32'0 0.0
2017-Aug-16 18:01N 39°39' W 075°32'0 0.0
2017-Aug-16 17:31N 39°39' W 075°32'0 0.3
2017-Aug-16 17:01N 39°39' W 075°32'0 0.3
2017-Aug-16 16:30N 39°39' W 075°32'0 0.0
2017-Aug-16 16:01N 39°39' W 075°32'0 0.0
2017-Aug-16 15:30N 39°39' W 075°32'0 0.0
2017-Aug-16 15:00N 39°39' W 075°32'0 0.0
2017-Aug-16 14:30N 39°39' W 075°32'0 0.0
2017-Aug-16 14:00N 39°39' W 075°32'0 0.0
2017-Aug-16 13:30N 39°39' W 075°32'0 1.0
2017-Aug-16 13:00N 39°40' W 075°32'0 0.0
2017-Aug-16 12:30N 39°40' W 075°32'0 0.0
2017-Aug-16 12:00N 39°40' W 075°32'0 0.9
2017-Aug-16 11:30N 39°39' W 075°32'0 0.9
2017-Aug-16 11:00N 39°40' W 075°32'0 0.1
2017-Aug-16 10:30N 39°40' W 075°32'0 0.0
2017-Aug-16 10:00N 39°40' W 075°32'0 0.0
2017-Aug-16 09:30N 39°40' W 075°32'0 0.0
2017-Aug-16 09:00N 39°40' W 075°32'0 0.1
2017-Aug-16 08:30N 39°40' W 075°32'0 0.1
2017-Aug-16 08:00N 39°40' W 075°32'1 1.0
2017-Aug-16 07:30N 39°39' W 075°32'0 0.0
2017-Aug-16 07:00N 39°39' W 075°32'0 0.0
2017-Aug-16 06:30N 39°39' W 075°32'0 0.0
2017-Aug-16 06:00N 39°39' W 075°32'0 0.0
2017-Aug-16 05:30N 39°39' W 075°32'0 0.0
2017-Aug-16 05:00N 39°39' W 075°32'0 0.0
2017-Aug-16 04:30N 39°39' W 075°32'0 0.0
2017-Aug-16 04:00N 39°39' W 075°32'0 0.0
2017-Aug-16 03:30N 39°39' W 075°32'0 0.0
2017-Aug-16 03:00N 39°39' W 075°32'0 0.0
2017-Aug-16 02:30N 39°39' W 075°32'0 0.0
2017-Aug-16 02:01N 39°39' W 075°32'0 0.0
2017-Aug-16 01:30N 39°39' W 075°32'0 0.0
2017-Aug-16 01:01N 39°39' W 075°32'0 0.0
2017-Aug-16 00:30N 39°39' W 075°32'0 0.0
2017-Aug-16 00:00N 39°39' W 075°32'0 0.0
2017-Aug-15 23:30N 39°39' W 075°32'0 0.0
2017-Aug-15 23:00N 39°39' W 075°32'0 0.0
2017-Aug-15 22:30N 39°39' W 075°32'0 0.0
2017-Aug-15 22:00N 39°39' W 075°32'0 0.0
2017-Aug-15 21:30N 39°39' W 075°32'0 0.0
2017-Aug-15 21:00N 39°39' W 075°32'0 0.0
2017-Aug-15 20:30N 39°39' W 075°32'0 0.0
2017-Aug-15 20:00N 39°39' W 075°32'0 0.0
2017-Aug-15 19:30N 39°39' W 075°32'0 0.0
2017-Aug-15 19:00N 39°39' W 075°32'2 4.7
2017-Aug-15 18:30N 39°38' W 075°34'3 6.5
2017-Aug-15 18:00N 39°35' W 075°33'2 3.5
2017-Aug-15 17:30N 39°33' W 075°32'2 3.9
2017-Aug-15 17:01N 39°34' W 075°30'0 0.9
2017-Aug-15 16:30N 39°34' W 075°29'0 0.0
2017-Aug-15 16:00N 39°34' W 075°29'0 0.0
2017-Aug-15 15:30N 39°34' W 075°29'0 0.1
2017-Aug-15 15:00N 39°34' W 075°29'1 2.0
2017-Aug-15 14:30N 39°34' W 075°30'2 3.6
2017-Aug-15 14:01N 39°33' W 075°32'3 6.1
2017-Aug-15 13:30N 39°36' W 075°34'3 6.4
2017-Aug-15 13:01N 39°39' W 075°33'1 1.9
2017-Aug-15 12:30N 39°39' W 075°32'0 0.0
2017-Aug-15 12:00N 39°39' W 075°32'0 0.0
2017-Aug-15 11:30N 39°39' W 075°32'0 0.0
2017-Aug-15 11:00N 39°39' W 075°32'1 1.2
2017-Aug-15 10:30N 39°40' W 075°32'0 0.1
2017-Aug-15 10:00N 39°40' W 075°32'0 0.1
2017-Aug-15 09:30N 39°40' W 075°32'1 1.2
2017-Aug-15 09:01N 39°39' W 075°32'0 0.0
2017-Aug-15 08:31N 39°39' W 075°32'0 0.0
2017-Aug-15 08:01N 39°39' W 075°32'0 0.0
2017-Aug-15 07:30N 39°39' W 075°32'0 0.0
2017-Aug-15 07:01N 39°39' W 075°32'0 0.0
2017-Aug-15 06:30N 39°39' W 075°32'0 0.0
2017-Aug-15 06:00N 39°39' W 075°32'0 0.0
2017-Aug-15 05:30N 39°39' W 075°32'0 0.0
2017-Aug-15 05:00N 39°39' W 075°32'0 0.0
2017-Aug-15 04:30N 39°39' W 075°32'0 0.0
2017-Aug-15 04:00N 39°39' W 075°32'0 0.0
2017-Aug-15 03:30N 39°39' W 075°32'0 0.0
2017-Aug-15 03:00N 39°39' W 075°32'0 0.0
2017-Aug-15 02:30N 39°39' W 075°32'0 0.0
2017-Aug-15 02:00N 39°39' W 075°32'0 0.0
2017-Aug-15 01:30N 39°39' W 075°32'0 0.0
2017-Aug-15 01:00N 39°39' W 075°32'0 0.0
2017-Aug-15 00:30N 39°39' W 075°32'0 0.0
2017-Aug-15 00:00N 39°39' W 075°32'0 0.0
2017-Aug-14 23:30N 39°39' W 075°32'0 0.0
2017-Aug-14 23:00N 39°39' W 075°32'0 0.0
2017-Aug-14 22:30N 39°39' W 075°32'0 0.0
2017-Aug-14 22:00N 39°39' W 075°32'0 0.0
2017-Aug-14 21:30N 39°39' W 075°32'0 0.0
2017-Aug-14 21:00N 39°39' W 075°32'0 0.0
2017-Aug-14 20:30N 39°39' W 075°32'0 0.0
2017-Aug-14 20:01N 39°39' W 075°32'0 0.0
2017-Aug-14 19:30N 39°39' W 075°32'0 0.0
2017-Aug-14 19:01N 39°39' W 075°32'0 0.0
2017-Aug-14 18:31N 39°39' W 075°32'1 1.4
2017-Aug-14 18:00N 39°40' W 075°32'0 0.1
2017-Aug-14 17:30N 39°40' W 075°32'1 1.3
2017-Aug-14 17:00N 39°39' W 075°32'0 0.3
2017-Aug-14 16:31N 39°39' W 075°32'0 0.2
2017-Aug-14 16:01N 39°39' W 075°32'0 0.0
2017-Aug-14 15:31N 39°39' W 075°32'0 0.0
2017-Aug-14 15:01N 39°39' W 075°32'0 0.0
2017-Aug-14 14:31N 39°39' W 075°32'0 0.0
2017-Aug-14 14:00N 39°39' W 075°32'0 0.0
2017-Aug-14 13:30N 39°39' W 075°32'0 0.3
2017-Aug-14 13:00N 39°39' W 075°32'0 0.0
2017-Aug-14 12:30N 39°39' W 075°32'0 0.0
2017-Aug-14 12:00N 39°39' W 075°32'0 0.0
2017-Aug-14 11:30N 39°39' W 075°32'1 1.7
2017-Aug-14 11:00N 39°40' W 075°32'0 0.0
2017-Aug-14 10:30N 39°40' W 075°32'0 0.0
2017-Aug-14 10:00N 39°40' W 075°32'0 0.0
2017-Aug-14 09:30N 39°40' W 075°32'1 1.5
2017-Aug-14 09:00N 39°39' W 075°32'0 0.0
2017-Aug-14 08:30N 39°39' W 075°32'0 0.0
2017-Aug-14 08:00N 39°39' W 075°32'0 0.0
2017-Aug-14 07:30N 39°39' W 075°32'0 0.0
2017-Aug-14 07:00N 39°39' W 075°32'0 0.0
2017-Aug-14 06:30N 39°39' W 075°32'0 0.0
2017-Aug-14 06:01N 39°39' W 075°32'0 0.0
2017-Aug-14 05:30N 39°39' W 075°32'0 0.0
2017-Aug-14 05:00N 39°39' W 075°32'0 0.0
2017-Aug-14 04:30N 39°39' W 075°32'0 0.0
2017-Aug-14 04:00N 39°39' W 075°32'0 0.0
2017-Aug-14 03:30N 39°39' W 075°32'1 1.6
2017-Aug-14 03:00N 39°40' W 075°32'0 0.3
2017-Aug-14 02:30N 39°40' W 075°32'0 0.7
2017-Aug-14 02:00N 39°40' W 075°32'0 0.2
2017-Aug-14 01:30N 39°40' W 075°32'0 0.7
2017-Aug-14 01:00N 39°39' W 075°32'0 0.0
2017-Aug-14 00:30N 39°39' W 075°32'0 0.0
2017-Aug-14 00:00N 39°39' W 075°32'0 0.0
2017-Aug-13 23:30N 39°39' W 075°32'0 0.0
2017-Aug-13 23:00N 39°39' W 075°32'0 0.0
2017-Aug-13 22:30N 39°39' W 075°32'0 0.0
2017-Aug-13 22:00N 39°39' W 075°32'0 0.0
2017-Aug-13 21:30N 39°39' W 075°32'0 0.0
2017-Aug-13 21:00N 39°39' W 075°32'0 0.0
2017-Aug-13 20:30N 39°39' W 075°32'0 0.0
2017-Aug-13 20:00N 39°39' W 075°32'0 0.0
2017-Aug-13 19:30N 39°39' W 075°32'0 0.0
2017-Aug-13 19:01N 39°39' W 075°32'0 0.0
2017-Aug-13 18:30N 39°39' W 075°32'0 0.0
2017-Aug-13 18:01N 39°39' W 075°32'0 0.2
2017-Aug-13 17:30N 39°39' W 075°32'0 0.1
2017-Aug-13 17:00N 39°39' W 075°32'0 0.1
2017-Aug-13 16:30N 39°39' W 075°32'0 0.0
2017-Aug-13 16:00N 39°39' W 075°32'0 0.0
2017-Aug-13 15:30N 39°39' W 075°32'0 0.0
2017-Aug-13 15:00N 39°39' W 075°32'0 0.1
2017-Aug-13 14:30N 39°39' W 075°32'0 0.1
2017-Aug-13 14:00N 39°39' W 075°32'0 0.0
2017-Aug-13 13:30N 39°39' W 075°32'0 0.0
2017-Aug-13 13:00N 39°39' W 075°32'0 0.0
2017-Aug-13 12:30N 39°39' W 075°32'0 0.0
2017-Aug-13 12:00N 39°39' W 075°32'0 0.0
2017-Aug-13 11:31N 39°39' W 075°32'0 0.6
2017-Aug-13 11:00N 39°40' W 075°33'0 0.0
2017-Aug-13 10:30N 39°40' W 075°33'0 0.0
2017-Aug-13 10:00N 39°40' W 075°33'0 0.0
2017-Aug-13 09:30N 39°40' W 075°33'0 0.0
2017-Aug-13 09:01N 39°40' W 075°33'0 0.3
2017-Aug-13 08:31N 39°40' W 075°32'0 0.8
2017-Aug-13 08:01N 39°39' W 075°32'0 0.0
2017-Aug-13 07:31N 39°39' W 075°32'0 0.0
2017-Aug-13 07:00N 39°39' W 075°32'0 0.0
2017-Aug-13 06:31N 39°39' W 075°32'0 0.0
2017-Aug-13 06:01N 39°39' W 075°32'0 0.0
2017-Aug-13 05:30N 39°39' W 075°32'0 0.0
2017-Aug-13 05:01N 39°39' W 075°32'0 0.0
2017-Aug-13 04:30N 39°39' W 075°32'0 0.0
2017-Aug-13 04:00N 39°39' W 075°32'0 0.0
2017-Aug-13 03:30N 39°39' W 075°32'0 0.0
2017-Aug-13 03:00N 39°39' W 075°32'0 0.0
2017-Aug-13 02:30N 39°39' W 075°32'0 0.0
2017-Aug-13 02:00N 39°39' W 075°32'0 0.0
2017-Aug-13 01:30N 39°39' W 075°32'0 0.0
2017-Aug-13 01:01N 39°39' W 075°32'0 0.0
2017-Aug-13 00:31N 39°39' W 075°32'0 0.0
2017-Aug-13 00:01N 39°39' W 075°32'0 0.0
2017-Aug-12 23:30N 39°39' W 075°32'0 0.0
2017-Aug-12 23:01N 39°39' W 075°32'0 0.0
2017-Aug-12 22:30N 39°39' W 075°32'0 0.0
2017-Aug-12 21:56N 39°39' W 075°32'0 0.0
2017-Aug-12 21:30N 39°39' W 075°32'0 0.0
2017-Aug-12 20:46N 39°39' W 075°32'0 0.0
2017-Aug-12 20:27N 39°39' W 075°32'0 0.0
2017-Aug-12 20:01N 39°39' W 075°32'0 0.0
2017-Aug-12 19:30N 39°39' W 075°32'0 0.0
2017-Aug-12 19:00N 39°39' W 075°32'0 0.0
2017-Aug-12 18:31N 39°39' W 075°32'0 0.0
2017-Aug-12 18:00N 39°39' W 075°32'0 0.1
2017-Aug-12 17:30N 39°39' W 075°32'0 0.1
2017-Aug-12 17:00N 39°39' W 075°32'0 0.2
2017-Aug-12 16:30N 39°39' W 075°32'0 0.2
2017-Aug-12 16:00N 39°39' W 075°32'0 0.0
2017-Aug-12 15:30N 39°39' W 075°32'0 0.0
2017-Aug-12 15:00N 39°39' W 075°32'0 0.8
2017-Aug-12 14:30N 39°40' W 075°32'0 0.9
2017-Aug-12 14:00N 39°39' W 075°32'0 0.1
2017-Aug-12 13:30N 39°39' W 075°32'0 0.1
2017-Aug-12 13:01N 39°39' W 075°32'0 0.0
2017-Aug-12 12:30N 39°39' W 075°32'0 0.0
2017-Aug-12 12:00N 39°39' W 075°32'0 0.0
2017-Aug-12 11:31N 39°39' W 075°32'0 0.7
2017-Aug-12 11:00N 39°40' W 075°33'0 0.2
2017-Aug-12 10:30N 39°40' W 075°32'0 0.0
2017-Aug-12 10:00N 39°40' W 075°32'0 0.0
2017-Aug-12 09:31N 39°40' W 075°32'0 0.0
2017-Aug-12 09:00N 39°40' W 075°32'0 0.1
2017-Aug-12 08:30N 39°40' W 075°32'0 0.2
2017-Aug-12 08:00N 39°40' W 075°32'0 0.1
2017-Aug-12 07:31N 39°40' W 075°32'1 1.3
2017-Aug-12 07:00N 39°39' W 075°33'0 0.1
2017-Aug-12 06:30N 39°39' W 075°33'0 0.8
2017-Aug-12 06:01N 39°39' W 075°32'0 0.0
2017-Aug-12 05:30N 39°39' W 075°32'0 0.0
2017-Aug-12 05:00N 39°39' W 075°32'0 0.0
2017-Aug-12 04:30N 39°39' W 075°32'0 0.0
2017-Aug-12 04:00N 39°39' W 075°32'0 0.0
2017-Aug-12 03:30N 39°39' W 075°32'0 0.0
2017-Aug-12 03:00N 39°39' W 075°32'0 0.0
2017-Aug-12 02:30N 39°39' W 075°32'0 0.0
2017-Aug-12 02:00N 39°39' W 075°32'0 0.0
2017-Aug-12 01:30N 39°39' W 075°32'0 0.0
2017-Aug-12 01:00N 39°39' W 075°32'0 0.6
2017-Aug-12 00:30N 39°39' W 075°33'0 0.4
2017-Aug-12 00:00N 39°39' W 075°32'0 0.4
2017-Aug-11 23:30N 39°39' W 075°33'0 0.6
2017-Aug-11 23:00N 39°39' W 075°32'0 0.0
2017-Aug-11 22:31N 39°39' W 075°32'0 0.7
2017-Aug-11 22:01N 39°39' W 075°33'0 0.1
2017-Aug-11 21:30N 39°39' W 075°33'0 0.0
2017-Aug-11 21:00N 39°39' W 075°33'0 0.1
2017-Aug-11 20:30N 39°39' W 075°33'0 0.0
2017-Aug-11 20:00N 39°39' W 075°33'0 0.0
2017-Aug-11 19:30N 39°39' W 075°33'0 0.0
2017-Aug-11 19:00N 39°39' W 075°33'0 0.0
2017-Aug-11 18:30N 39°39' W 075°33'0 0.0
2017-Aug-11 18:00N 39°39' W 075°33'0 0.0
2017-Aug-11 17:30N 39°39' W 075°33'0 0.3
2017-Aug-11 17:00N 39°39' W 075°33'1 1.7
2017-Aug-11 16:30N 39°39' W 075°33'1 2.6
2017-Aug-11 16:00N 39°40' W 075°32'1 1.3
2017-Aug-11 15:31N 39°39' W 075°33'0 0.1
2017-Aug-11 15:00N 39°39' W 075°33'0 0.2
2017-Aug-11 14:00N 39°39' W 075°33'1 1.0
2017-Aug-11 13:30N 39°39' W 075°34'0 0.4
2017-Aug-11 13:00N 39°39' W 075°33'0 0.3
2017-Aug-11 12:30N 39°39' W 075°33'1 1.3
2017-Aug-11 12:00N 39°39' W 075°33'0 0.2
2017-Aug-11 11:30N 39°39' W 075°33'0 0.3
2017-Aug-11 11:00N 39°39' W 075°33'0 0.1
2017-Aug-11 10:31N 39°39' W 075°33'0 0.0
2017-Aug-11 10:00N 39°39' W 075°33'0 0.0
2017-Aug-11 09:30N 39°39' W 075°33'0 0.6
2017-Aug-11 09:00N 39°39' W 075°32'0 0.0
2017-Aug-11 08:30N 39°39' W 075°32'0 0.0
2017-Aug-11 08:00N 39°39' W 075°32'0 0.0
2017-Aug-11 07:30N 39°39' W 075°32'0 0.0
2017-Aug-11 07:00N 39°39' W 075°32'0 0.0
2017-Aug-11 06:30N 39°39' W 075°32'0 0.0
2017-Aug-11 06:00N 39°39' W 075°32'0 0.0
2017-Aug-11 05:30N 39°39' W 075°32'0 0.0
2017-Aug-11 05:00N 39°39' W 075°32'0 0.0
2017-Aug-11 04:30N 39°39' W 075°32'0 0.0
2017-Aug-11 04:00N 39°39' W 075°32'0 0.0
2017-Aug-11 03:30N 39°39' W 075°32'0 0.0
2017-Aug-11 03:00N 39°39' W 075°32'0 0.0
2017-Aug-11 02:30N 39°39' W 075°32'0 0.0
2017-Aug-11 02:00N 39°39' W 075°32'0 0.0
2017-Aug-11 01:30N 39°39' W 075°32'0 0.0
2017-Aug-11 01:00N 39°39' W 075°32'0 0.7
2017-Aug-11 00:30N 39°40' W 075°33'0 0.3
2017-Aug-11 00:01N 39°39' W 075°33'0 0.1
2017-Aug-10 23:30N 39°39' W 075°33'0 0.5
2017-Aug-10 23:01N 39°39' W 075°33'0 0.5
2017-Aug-10 22:30N 39°39' W 075°33'1 1.1
2017-Aug-10 22:00N 39°39' W 075°32'0 0.2
2017-Aug-10 21:31N 39°39' W 075°32'0 0.0
2017-Aug-10 21:01N 39°39' W 075°32'0 0.0
2017-Aug-10 20:31N 39°39' W 075°32'0 0.0
2017-Aug-10 20:00N 39°39' W 075°32'0 0.0
2017-Aug-10 19:31N 39°39' W 075°32'0 0.0
2017-Aug-10 19:00N 39°39' W 075°32'0 0.0
2017-Aug-10 18:27N 39°39' W 075°32'0 0.0
2017-Aug-10 17:59N 39°39' W 075°32'0 0.0
2017-Aug-10 17:30N 39°39' W 075°32'0 0.0
2017-Aug-10 17:00N 39°39' W 075°32'0 0.0
2017-Aug-10 16:30N 39°39' W 075°32'0 0.0
2017-Aug-10 16:01N 39°39' W 075°32'0 0.0
2017-Aug-10 15:31N 39°39' W 075°32'0 0.0
2017-Aug-10 15:00N 39°39' W 075°32'0 0.0
2017-Aug-10 14:31N 39°39' W 075°32'0 0.0
2017-Aug-10 13:30N 39°39' W 075°32'0 0.0
2017-Aug-10 13:00N 39°39' W 075°32'0 0.0
2017-Aug-10 12:30N 39°39' W 075°32'0 0.0
2017-Aug-10 12:00N 39°39' W 075°32'0 0.0
2017-Aug-10 11:30N 39°39' W 075°32'0 0.6
2017-Aug-10 11:00N 39°39' W 075°33'0 0.5
2017-Aug-10 10:30N 39°39' W 075°33'0 0.1
2017-Aug-10 10:00N 39°39' W 075°33'0 0.0
2017-Aug-10 09:30N 39°39' W 075°33'1 1.0
2017-Aug-10 09:00N 39°39' W 075°32'0 0.0
2017-Aug-10 08:30N 39°39' W 075°32'0 0.0
2017-Aug-10 08:00N 39°39' W 075°32'0 0.0
2017-Aug-10 07:30N 39°39' W 075°32'0 0.0
2017-Aug-10 07:00N 39°39' W 075°32'0 0.0
2017-Aug-10 06:30N 39°39' W 075°32'0 0.0
2017-Aug-10 06:00N 39°39' W 075°32'0 0.0
2017-Aug-10 05:30N 39°39' W 075°32'0 0.0
2017-Aug-10 05:00N 39°39' W 075°32'0 0.0
2017-Aug-10 04:30N 39°39' W 075°32'0 0.0
2017-Aug-10 04:00N 39°39' W 075°32'0 0.0
2017-Aug-10 03:30N 39°39' W 075°32'0 0.0
2017-Aug-10 03:00N 39°39' W 075°32'0 0.0
2017-Aug-10 02:30N 39°39' W 075°32'0 0.0
2017-Aug-10 02:00N 39°39' W 075°32'0 0.0
2017-Aug-10 01:30N 39°39' W 075°32'0 0.0
2017-Aug-10 01:00N 39°39' W 075°32'0 0.0
2017-Aug-10 00:30N 39°39' W 075°32'0 0.0
2017-Aug-10 00:00N 39°39' W 075°32'0 0.0
2017-Aug-09 23:31N 39°39' W 075°32'0 0.0
2017-Aug-09 23:01N 39°39' W 075°32'0 0.0
2017-Aug-09 22:31N 39°39' W 075°32'0 0.9
2017-Aug-09 22:01N 39°39' W 075°33'0 0.0
2017-Aug-09 21:31N 39°39' W 075°33'0 0.9
2017-Aug-09 21:00N 39°39' W 075°32'0 0.0
2017-Aug-09 20:30N 39°39' W 075°32'0 0.0
2017-Aug-09 20:01N 39°39' W 075°32'0 0.0
2017-Aug-09 19:31N 39°39' W 075°32'0 0.0
2017-Aug-09 19:01N 39°39' W 075°32'0 0.0
2017-Aug-09 18:31N 39°39' W 075°32'0 0.0
2017-Aug-09 18:01N 39°39' W 075°32'0 0.0
2017-Aug-09 17:31N 39°39' W 075°32'0 0.0
2017-Aug-09 17:01N 39°39' W 075°32'0 0.0
2017-Aug-09 16:30N 39°39' W 075°32'0 0.0
2017-Aug-09 16:00N 39°39' W 075°32'0 0.0
2017-Aug-09 15:31N 39°39' W 075°32'0 0.0
2017-Aug-09 15:01N 39°39' W 075°32'0 0.8
2017-Aug-09 14:31N 39°39' W 075°33'0 0.6
2017-Aug-09 14:00N 39°39' W 075°33'1 1.1
2017-Aug-09 13:30N 39°39' W 075°32'0 0.1
2017-Aug-09 13:00N 39°39' W 075°32'0 0.5
2017-Aug-09 12:30N 39°39' W 075°33'0 0.0
2017-Aug-09 12:00N 39°39' W 075°33'0 0.1
2017-Aug-09 11:30N 39°39' W 075°33'0 0.6
2017-Aug-09 11:01N 39°39' W 075°32'0 0.6
2017-Aug-09 10:31N 39°39' W 075°33'0 0.0
2017-Aug-09 10:00N 39°39' W 075°33'0 0.0
2017-Aug-09 09:31N 39°39' W 075°33'0 0.6
2017-Aug-09 09:01N 39°39' W 075°32'0 0.0
2017-Aug-09 08:30N 39°39' W 075°32'0 0.0
2017-Aug-09 08:01N 39°39' W 075°32'0 0.0
2017-Aug-09 07:31N 39°39' W 075°32'0 0.0
2017-Aug-09 07:00N 39°39' W 075°32'0 0.0
2017-Aug-09 06:31N 39°39' W 075°32'0 0.0
2017-Aug-09 06:01N 39°39' W 075°32'0 0.0
2017-Aug-09 05:31N 39°39' W 075°32'0 0.0
2017-Aug-09 05:01N 39°39' W 075°32'0 0.0
2017-Aug-09 04:30N 39°39' W 075°32'0 0.0
2017-Aug-09 04:01N 39°39' W 075°32'0 0.0
2017-Aug-09 03:30N 39°39' W 075°32'0 0.0
2017-Aug-09 03:00N 39°39' W 075°32'0 0.0
2017-Aug-09 02:30N 39°39' W 075°32'0 0.0
2017-Aug-09 02:00N 39°39' W 075°32'0 0.0
2017-Aug-09 01:30N 39°39' W 075°32'0 0.0
2017-Aug-09 01:00N 39°39' W 075°32'0 0.0
2017-Aug-09 00:30N 39°39' W 075°32'0 0.0
2017-Aug-09 00:00N 39°39' W 075°32'0 0.0
2017-Aug-08 23:30N 39°39' W 075°32'0 0.0
2017-Aug-08 23:00N 39°39' W 075°32'0 0.0
2017-Aug-08 22:30N 39°39' W 075°32'0 0.0
2017-Aug-08 22:00N 39°39' W 075°32'0 0.0
2017-Aug-08 21:30N 39°39' W 075°32'0 0.0
2017-Aug-08 21:00N 39°39' W 075°32'0 0.0
2017-Aug-08 20:30N 39°39' W 075°32'0 0.0
2017-Aug-08 20:00N 39°39' W 075°32'0 0.0
2017-Aug-08 19:31N 39°39' W 075°32'0 0.0
2017-Aug-08 19:00N 39°39' W 075°32'0 0.6
2017-Aug-08 18:31N 39°39' W 075°33'2 3.5
2017-Aug-08 18:00N 39°38' W 075°34'3 5.2
2017-Aug-08 17:30N 39°35' W 075°34'3 5.5
2017-Aug-08 17:01N 39°33' W 075°32'2 4.1
2017-Aug-08 16:30N 39°34' W 075°30'1 1.8
2017-Aug-08 16:01N 39°34' W 075°29'0 0.0
2017-Aug-08 15:30N 39°34' W 075°29'2 3.8
2017-Aug-08 15:00N 39°34' W 075°31'1 1.8
2017-Aug-08 14:30N 39°34' W 075°33'2 4.2
2017-Aug-08 14:00N 39°35' W 075°34'2 4.5
2017-Aug-08 13:30N 39°37' W 075°35'3 5.2
2017-Aug-08 13:01N 39°39' W 075°33'0 0.1
2017-Aug-08 12:30N 39°39' W 075°33'0 0.1
2017-Aug-08 12:00N 39°39' W 075°33'0 0.5
2017-Aug-08 11:30N 39°39' W 075°32'0 0.0
2017-Aug-08 11:01N 39°39' W 075°32'0 0.6
2017-Aug-08 10:30N 39°39' W 075°33'0 0.0
2017-Aug-08 10:00N 39°39' W 075°33'0 0.0
2017-Aug-08 09:30N 39°39' W 075°33'0 0.6
2017-Aug-08 09:00N 39°39' W 075°32'0 0.0
2017-Aug-08 08:30N 39°39' W 075°32'0 0.0
2017-Aug-08 08:00N 39°39' W 075°32'0 0.0
2017-Aug-08 07:30N 39°39' W 075°32'0 0.0
2017-Aug-08 07:01N 39°39' W 075°32'0 0.7
2017-Aug-08 06:31N 39°40' W 075°32'0 0.7
2017-Aug-08 06:01N 39°39' W 075°32'0 0.0
2017-Aug-08 05:31N 39°39' W 075°32'0 0.0
2017-Aug-08 05:01N 39°39' W 075°32'0 0.0
2017-Aug-08 04:30N 39°39' W 075°32'0 0.0
2017-Aug-08 04:01N 39°39' W 075°32'0 0.0
2017-Aug-08 03:31N 39°39' W 075°32'0 0.0
2017-Aug-08 03:01N 39°39' W 075°32'0 0.0
2017-Aug-08 02:30N 39°39' W 075°32'0 0.0
2017-Aug-08 02:01N 39°39' W 075°32'0 0.0
2017-Aug-08 01:31N 39°39' W 075°32'0 0.6
2017-Aug-08 01:01N 39°40' W 075°33'0 0.0
2017-Aug-08 00:30N 39°39' W 075°33'0 0.5
2017-Aug-08 00:01N 39°39' W 075°32'0 0.1
2017-Aug-07 23:30N 39°39' W 075°32'0 0.0
2017-Aug-07 23:01N 39°39' W 075°32'0 0.0
2017-Aug-07 22:30N 39°39' W 075°32'0 0.0
2017-Aug-07 22:00N 39°39' W 075°32'0 0.0
2017-Aug-07 21:30N 39°39' W 075°32'0 0.0
2017-Aug-07 21:00N 39°39' W 075°32'0 0.0
2017-Aug-07 20:31N 39°39' W 075°32'0 0.0
2017-Aug-07 20:01N 39°39' W 075°32'0 0.0
2017-Aug-07 19:30N 39°39' W 075°32'0 0.0
2017-Aug-07 19:01N 39°39' W 075°32'0 0.0
2017-Aug-07 18:31N 39°39' W 075°32'0 0.0
2017-Aug-07 18:01N 39°39' W 075°32'0 0.0
2017-Aug-07 17:31N 39°39' W 075°32'0 0.0
2017-Aug-07 17:00N 39°39' W 075°32'0 0.0
2017-Aug-07 16:30N 39°39' W 075°32'0 0.0
2017-Aug-07 16:00N 39°39' W 075°32'0 0.0
2017-Aug-07 15:31N 39°39' W 075°32'0 0.0
2017-Aug-07 15:00N 39°39' W 075°32'0 0.0
2017-Aug-07 14:30N 39°39' W 075°32'0 0.0
2017-Aug-07 14:00N 39°39' W 075°32'0 0.0
2017-Aug-07 13:30N 39°39' W 075°32'0 0.0
2017-Aug-07 13:01N 39°39' W 075°32'0 0.0
2017-Aug-07 12:31N 39°39' W 075°32'0 0.0
2017-Aug-07 12:01N 39°39' W 075°32'0 0.0
2017-Aug-07 11:30N 39°39' W 075°32'0 0.7
2017-Aug-07 11:01N 39°40' W 075°32'0 0.0
2017-Aug-07 10:31N 39°40' W 075°32'0 0.0
2017-Aug-07 10:00N 39°40' W 075°32'0 0.0
2017-Aug-07 09:31N 39°40' W 075°32'0 0.0
2017-Aug-07 09:01N 39°40' W 075°32'0 0.0
2017-Aug-07 08:31N 39°40' W 075°32'0 0.1
2017-Aug-07 08:01N 39°40' W 075°32'0 0.4
2017-Aug-07 07:31N 39°40' W 075°33'0 0.3
2017-Aug-07 07:01N 39°39' W 075°33'0 0.1
2017-Aug-07 06:30N 39°39' W 075°33'0 0.9
2017-Aug-07 06:01N 39°40' W 075°32'1 1.7
2017-Aug-07 05:30N 39°39' W 075°33'0 0.8
2017-Aug-07 05:01N 39°39' W 075°33'0 0.8
2017-Aug-07 04:30N 39°39' W 075°33'0 0.1
2017-Aug-07 04:00N 39°39' W 075°33'1 1.3
2017-Aug-07 03:30N 39°39' W 075°32'0 0.0
2017-Aug-07 03:00N 39°39' W 075°32'0 0.0
2017-Aug-07 02:30N 39°39' W 075°32'0 0.0
2017-Aug-07 02:00N 39°39' W 075°32'0 0.0
2017-Aug-07 01:30N 39°39' W 075°32'0 0.0
2017-Aug-07 01:01N 39°39' W 075°32'0 0.0
2017-Aug-07 00:31N 39°39' W 075°32'0 0.0
2017-Aug-07 00:00N 39°39' W 075°32'0 0.0
2017-Aug-06 23:30N 39°39' W 075°32'0 0.0
2017-Aug-06 23:00N 39°39' W 075°32'0 0.0
2017-Aug-06 22:30N 39°39' W 075°32'0 0.0
2017-Aug-06 22:00N 39°39' W 075°32'  

Dump ship's entire track history